Time;durP1;ratioP1;P1;durP2;ratioP2;P2;SDS_P1;SDS_P2;PMS_P1;PMS_P2;Temp;Humidity;BMP_temperature;BMP_pressure;BME280_temperature;BME280_humidity;BME280_pressure;Samples;Min_cycle;Max_cycle;Signal;HPM_P1;HPM_P2
2023/12/20 00:00:37;;;;;;;1.00;1.00;;;;;;;3.16;92.69;98567.88;5028761;28;20049;-77
2023/12/20 00:03:04;;;;;;;1.10;1.10;;;;;;;3.15;92.44;98564.34;5031376;28;20076;-77
2023/12/20 00:05:31;;;;;;;0.90;0.90;;;;;;;3.17;92.86;98559.19;5030839;28;20042;-77
2023/12/20 00:07:57;;;;;;;0.90;0.90;;;;;;;3.17;92.78;98557.44;5032461;28;20050;-77
2023/12/20 00:10:22;;;;;;;1.08;1.08;;;;;;;3.32;92.66;98558.28;5029887;28;20392;-77
2023/12/20 00:12:48;;;;;;;0.93;0.93;;;;;;;3.30;92.41;98557.28;5033909;28;20041;-78
2023/12/20 00:15:13;;;;;;;1.00;1.00;;;;;;;3.32;92.42;98558.28;5028957;28;20406;-77
2023/12/20 00:17:39;;;;;;;1.00;1.00;;;;;;;3.29;92.76;98558.09;5029943;28;20041;-78
2023/12/20 00:20:06;;;;;;;1.00;1.00;;;;;;;3.33;93.11;98554.81;5033038;28;20174;-78
2023/12/20 00:22:31;;;;;;;0.98;0.98;;;;;;;3.35;93.10;98541.72;5035334;28;20045;-78
2023/12/20 00:25:00;;;;;;;0.98;0.98;;;;;;;3.31;93.25;98540.66;5033258;28;20388;-77
2023/12/20 00:27:25;;;;;;;1.00;1.00;;;;;;;3.39;93.43;98543.69;5032276;28;20107;-78
2023/12/20 00:29:50;;;;;;;1.00;1.00;;;;;;;3.38;93.10;98538.34;5035646;28;20041;-77
2023/12/20 00:32:16;;;;;;;0.90;0.90;;;;;;;3.34;93.51;98529.34;5032407;28;20487;-78
2023/12/20 00:34:42;;;;;;;1.00;1.00;;;;;;;3.24;93.96;98538.50;5031821;28;20045;-77
2023/12/20 00:37:08;;;;;;;0.90;0.90;;;;;;;3.27;94.15;98524.59;5048681;28;20041;-77
2023/12/20 00:39:33;;;;;;;0.90;0.90;;;;;;;3.32;93.89;98521.38;5034971;28;20033;-78
2023/12/20 00:41:59;;;;;;;1.00;1.00;;;;;;;3.37;93.76;98531.25;5034978;28;20036;-78
2023/12/20 00:44:24;;;;;;;0.90;0.90;;;;;;;3.35;93.85;98528.53;5034908;28;20146;-78
2023/12/20 00:46:50;;;;;;;1.00;1.00;;;;;;;3.34;93.82;98529.34;5033315;28;20075;-77
2023/12/20 00:49:15;;;;;;;0.90;0.90;;;;;;;3.20;94.52;98522.44;5032691;28;20416;-77
2023/12/20 00:51:41;;;;;;;1.00;1.00;;;;;;;3.25;94.35;98524.47;5034242;28;20041;-77
2023/12/20 00:54:06;;;;;;;0.90;0.90;;;;;;;3.24;94.36;98527.03;5032665;28;20045;-77
2023/12/20 00:56:31;;;;;;;0.90;0.90;;;;;;;3.30;94.57;98517.72;5031288;28;20049;-77
2023/12/20 00:58:57;;;;;;;1.00;1.00;;;;;;;3.31;94.27;98527.47;5032194;28;20619;-77
2023/12/20 01:01:22;;;;;;;0.90;0.90;;;;;;;3.22;95.13;98523.44;5031796;28;20041;-77
2023/12/20 01:03:48;;;;;;;0.90;0.90;;;;;;;3.29;95.11;98520.28;5031632;28;20038;-77
2023/12/20 01:06:13;;;;;;;0.90;0.90;;;;;;;3.33;94.78;98517.00;5036173;28;20052;-77
2023/12/20 01:08:39;;;;;;;0.90;0.90;;;;;;;3.25;94.43;98535.03;5032105;28;20086;-77
2023/12/20 01:11:05;;;;;;;0.90;0.90;;;;;;;3.40;94.51;98540.22;5033425;28;20127;-76
2023/12/20 01:13:31;;;;;;;0.80;0.80;;;;;;;3.27;94.81;98522.84;5032064;28;20045;-77
2023/12/20 01:15:56;;;;;;;0.95;0.95;;;;;;;3.21;95.02;98525.16;5048098;28;20040;-77
2023/12/20 01:18:21;;;;;;;0.90;0.90;;;;;;;3.27;95.24;98532.50;5031376;28;20156;-77
2023/12/20 01:20:47;;;;;;;0.90;0.90;;;;;;;3.31;94.96;98532.75;5033202;28;20402;-76
2023/12/20 01:23:12;;;;;;;0.90;0.90;;;;;;;3.40;95.34;98531.41;5034237;28;20042;-76
2023/12/20 01:25:38;;;;;;;0.90;0.90;;;;;;;3.33;95.09;98525.81;5033586;28;20084;-77
2023/12/20 01:28:04;;;;;;;0.90;0.90;;;;;;;3.30;95.35;98536.19;5035019;28;20040;-76
2023/12/20 01:30:29;;;;;;;0.93;0.93;;;;;;;3.43;95.59;98550.94;5020079;28;20037;-76
2023/12/20 01:32:55;;;;;;;0.90;0.90;;;;;;;3.38;95.31;98525.16;5034576;28;20052;-76
2023/12/20 01:35:20;;;;;;;0.80;0.80;;;;;;;3.38;95.54;98540.97;5029261;28;20040;-76
2023/12/20 01:37:46;;;;;;;1.00;1.00;;;;;;;3.43;95.25;98540.41;5044689;28;20052;-76
2023/12/20 01:40:11;;;;;;;1.00;1.00;;;;;;;3.30;96.00;98543.19;5031754;28;20041;-76
2023/12/20 01:42:37;;;;;;;0.95;0.95;;;;;;;3.31;96.30;98545.94;5041097;28;20033;-77
2023/12/20 01:45:02;;;;;;;1.00;1.00;;;;;;;3.29;96.40;98541.38;5032137;28;20770;-76
2023/12/20 01:47:28;;;;;;;1.00;1.00;;;;;;;3.28;96.38;98556.31;5031434;28;20132;-76
2023/12/20 01:49:54;;;;;;;0.98;0.98;;;;;;;3.34;96.03;98547.81;5031406;28;20148;-76
2023/12/20 01:52:20;;;;;;;0.90;0.90;;;;;;;3.37;96.36;98542.72;5037134;28;20034;-76
2023/12/20 01:54:47;;;;;;;1.00;1.00;;;;;;;3.38;96.05;98535.72;5029355;28;20044;-76
2023/12/20 01:57:13;;;;;;;1.08;1.08;;;;;;;3.31;96.02;98540.66;5030058;28;20045;-76
2023/12/20 01:59:40;;;;;;;0.90;0.90;;;;;;;3.40;95.81;98539.31;5030351;28;20053;-76
2023/12/20 02:02:07;;;;;;;1.08;1.08;;;;;;;3.30;96.26;98538.81;5031589;28;20041;-77
2023/12/20 02:04:32;;;;;;;1.00;1.00;;;;;;;3.41;95.94;98535.88;5029994;28;20564;-76
2023/12/20 02:06:59;;;;;;;1.00;1.00;;;;;;;3.44;96.51;98544.84;5030196;28;20034;-76
2023/12/20 02:09:24;;;;;;;0.90;0.90;;;;;;;3.37;96.60;98542.72;5046860;28;20075;-76
2023/12/20 02:11:50;;;;;;;0.90;0.90;;;;;;;3.48;96.25;98543.28;5032006;28;20068;-76
2023/12/20 02:14:16;;;;;;;0.98;0.98;;;;;;;3.47;96.67;98541.47;5014256;28;20162;-76
2023/12/20 02:16:41;;;;;;;0.90;0.90;;;;;;;3.55;96.50;98535.78;5031106;28;20037;-76
2023/12/20 02:19:13;;;;;;;0.90;0.90;;;;;;;3.53;96.46;98531.25;5036910;28;20119;-76
2023/12/20 02:21:39;;;;;;;0.95;0.95;;;;;;;3.54;96.50;98533.06;5029467;28;20049;-76
2023/12/20 02:24:04;;;;;;;0.90;0.90;;;;;;;3.57;96.91;98528.84;5029544;28;20033;-76
2023/12/20 02:26:32;;;;;;;0.90;0.90;;;;;;;3.51;96.85;98522.38;5033665;28;20440;-76
2023/12/20 02:28:58;;;;;;;0.90;0.90;;;;;;;3.53;96.91;98532.16;5034404;28;20132;-76
2023/12/20 02:31:24;;;;;;;0.90;0.90;;;;;;;3.60;96.88;98533.41;5031138;28;20056;-76
2023/12/20 02:33:49;;;;;;;0.80;0.80;;;;;;;3.56;96.57;98532.31;5032719;28;20037;-76
2023/12/20 02:36:14;;;;;;;0.75;0.75;;;;;;;3.52;96.88;98529.44;5027913;28;20124;-76
2023/12/20 02:38:40;;;;;;;0.90;0.90;;;;;;;3.54;97.16;98533.94;5038228;28;20398;-76
2023/12/20 02:41:05;;;;;;;0.82;0.82;;;;;;;3.55;97.01;98535.78;5033114;28;20033;-76
2023/12/20 02:43:31;;;;;;;0.85;0.85;;;;;;;3.62;96.62;98547.56;5030524;28;20106;-76
2023/12/20 02:45:56;;;;;;;0.93;0.93;;;;;;;3.66;96.56;98546.00;5030883;28;20057;-76
2023/12/20 02:48:22;;;;;;;0.90;0.90;;;;;;;3.50;96.67;98545.19;5027890;28;20602;-76
2023/12/20 02:50:49;;;;;;;0.80;0.80;;;;;;;3.60;96.58;98529.03;5030849;28;20091;-76
2023/12/20 02:53:14;;;;;;;0.90;0.90;;;;;;;3.63;96.57;98533.53;5030202;28;20116;-76
2023/12/20 02:55:40;;;;;;;0.95;0.95;;;;;;;3.49;96.24;98534.53;5029644;28;20029;-76
2023/12/20 02:58:05;;;;;;;0.90;0.90;;;;;;;3.50;96.91;98532.00;5033060;28;20055;-76
2023/12/20 03:00:34;;;;;;;0.90;0.90;;;;;;;3.53;96.76;98541.78;5016822;28;20120;-76
2023/12/20 03:02:59;;;;;;;0.80;0.80;;;;;;;3.53;97.07;98534.78;5032996;28;20127;-76
2023/12/20 03:05:25;;;;;;;0.90;0.90;;;;;;;3.54;97.12;98535.69;5029225;28;20041;-76
2023/12/20 03:07:50;;;;;;;0.90;0.90;;;;;;;3.53;96.79;98536.53;5029314;28;20115;-76
2023/12/20 03:10:15;;;;;;;0.88;0.88;;;;;;;3.76;96.63;98541.28;5030183;28;20143;-76
2023/12/20 03:12:41;;;;;;;0.85;0.85;;;;;;;3.66;96.83;98538.09;5028245;28;20072;-76
2023/12/20 03:15:07;;;;;;;0.90;0.90;;;;;;;3.63;96.50;98538.81;5029126;28;20029;-77
2023/12/20 03:17:32;;;;;;;0.80;0.80;;;;;;;3.95;96.56;98544.88;5030419;28;20482;-76
2023/12/20 03:19:57;;;;;;;0.90;0.90;;;;;;;3.82;96.10;98548.59;5030202;28;20045;-76
2023/12/20 03:22:23;;;;;;;0.80;0.80;;;;;;;3.81;96.30;98552.09;5029884;28;20124;-76
2023/12/20 03:24:48;;;;;;;0.98;0.98;;;;;;;4.04;96.15;98559.47;5032063;28;20449;-76
2023/12/20 03:27:14;;;;;;;0.93;0.93;;;;;;;4.36;95.14;98557.56;5028569;28;20377;-76
2023/12/20 03:29:39;;;;;;;1.00;1.00;;;;;;;4.31;94.91;98553.75;5030651;28;20049;-76
2023/12/20 03:32:05;;;;;;;0.98;0.98;;;;;;;4.38;94.35;98566.47;5027766;28;20037;-76
2023/12/20 03:34:31;;;;;;;0.90;0.90;;;;;;;4.33;94.59;98563.59;5028813;28;20573;-76
2023/12/20 03:36:56;;;;;;;0.90;0.90;;;;;;;4.45;93.55;98558.00;5031399;28;20044;-76
2023/12/20 03:39:22;;;;;;;0.90;0.90;;;;;;;4.43;93.70;98558.78;5035528;28;20038;-76
2023/12/20 03:41:47;;;;;;;1.00;1.00;;;;;;;4.45;93.16;98557.09;5030573;28;20029;-76
2023/12/20 03:44:12;;;;;;;0.90;0.90;;;;;;;4.35;93.18;98559.28;5042396;28;20064;-76
2023/12/20 03:46:38;;;;;;;1.00;1.00;;;;;;;4.33;93.80;98558.31;5030108;28;20094;-76
2023/12/20 03:49:03;;;;;;;0.88;0.88;;;;;;;4.50;93.21;98560.88;5026845;28;20063;-76
2023/12/20 03:51:29;;;;;;;0.90;0.90;;;;;;;4.44;93.21;98565.88;5028854;28;20061;-76
2023/12/20 03:53:54;;;;;;;1.00;1.00;;;;;;;4.34;93.29;98553.94;5031603;28;20061;-76
2023/12/20 03:56:19;;;;;;;0.90;0.90;;;;;;;4.44;93.00;98560.59;5034871;28;20163;-76
2023/12/20 03:58:45;;;;;;;1.00;1.00;;;;;;;4.43;92.85;98558.78;5031170;28;20092;-77
2023/12/20 04:01:11;;;;;;;1.00;1.00;;;;;;;4.42;92.93;98554.34;5031358;28;20707;-77
2023/12/20 04:03:38;;;;;;;1.00;1.00;;;;;;;4.51;92.73;98554.78;5034060;28;20055;-77
2023/12/20 04:06:04;;;;;;;0.90;0.90;;;;;;;4.36;92.93;98555.84;5032260;28;20037;-76
2023/12/20 04:08:29;;;;;;;1.00;1.00;;;;;;;4.33;92.79;98552.13;5049735;28;20398;-76
2023/12/20 04:10:54;;;;;;;0.90;0.90;;;;;;;4.37;92.54;98557.66;5035390;28;20466;-76
2023/12/20 04:13:20;;;;;;;0.90;0.90;;;;;;;4.38;92.29;98567.38;5033836;28;20056;-76
2023/12/20 04:15:45;;;;;;;0.90;0.90;;;;;;;4.42;92.27;98560.50;5038161;28;20039;-76
2023/12/20 04:18:11;;;;;;;0.90;0.90;;;;;;;4.45;92.01;98557.09;5031915;28;20102;-76
2023/12/20 04:20:36;;;;;;;1.00;1.00;;;;;;;4.42;92.00;98565.78;5032738;28;20047;-77
2023/12/20 04:23:02;;;;;;;1.00;1.00;;;;;;;4.35;91.95;98561.91;5032716;28;20760;-76
2023/12/20 04:25:27;;;;;;;0.90;0.90;;;;;;;4.38;91.86;98564.72;5031144;28;20045;-77
2023/12/20 04:27:52;;;;;;;0.90;0.90;;;;;;;4.36;92.15;98563.75;5032578;28;20546;-76
2023/12/20 04:30:18;;;;;;;1.00;1.00;;;;;;;4.34;92.34;98570.69;5039705;28;20577;-76
2023/12/20 04:32:43;;;;;;;1.00;1.00;;;;;;;4.27;92.15;98571.22;5032867;28;20040;-76
2023/12/20 04:35:09;;;;;;;1.00;1.00;;;;;;;4.28;91.74;98580.94;5034549;28;20037;-76
2023/12/20 04:37:34;;;;;;;0.90;0.90;;;;;;;4.23;91.88;98587.72;5029654;28;20099;-76
2023/12/20 04:40:00;;;;;;;1.00;1.00;;;;;;;4.29;91.96;98589.75;5031608;28;20050;-76
2023/12/20 04:42:34;;;;;;;1.00;1.00;;;;;;;4.29;91.44;98582.75;5036156;28;20037;-76
2023/12/20 04:45:16;;;;;;;1.00;1.00;;;;;;;4.32;91.43;98601.41;5030499;28;20049;-76
2023/12/20 04:47:42;;;;;;;1.00;1.00;;;;;;;4.27;92.08;98608.19;5031664;28;20135;-76
2023/12/20 04:50:09;;;;;;;1.00;1.00;;;;;;;4.30;91.66;98596.84;5035961;28;20120;-76
2023/12/20 04:52:35;;;;;;;1.02;1.02;;;;;;;4.28;91.84;98599.44;5032079;28;20045;-76
2023/12/20 04:55:10;;;;;;;1.00;1.00;;;;;;;4.24;91.62;98593.91;5036500;28;20463;-76
2023/12/20 04:57:35;;;;;;;1.00;1.00;;;;;;;4.20;91.91;98599.84;5048453;28;20403;-76
2023/12/20 05:00:04;;;;;;;1.00;1.00;;;;;;;4.17;92.21;98602.31;5032292;28;20479;-76
2023/12/20 05:02:30;;;;;;;1.10;1.10;;;;;;;4.22;92.33;98606.13;5029583;28;20049;-76
2023/12/20 05:04:55;;;;;;;0.98;0.98;;;;;;;4.22;91.92;98607.03;5015643;28;20045;-76
2023/12/20 05:07:26;;;;;;;1.00;1.00;;;;;;;4.29;91.69;98603.88;5033237;28;20042;-76
2023/12/20 05:10:00;;;;;;;1.00;1.00;;;;;;;4.21;92.03;98610.47;5031924;28;20120;-76
2023/12/20 05:12:31;;;;;;;1.00;1.00;;;;;;;4.21;92.02;98594.63;5040037;28;20430;-76
2023/12/20 05:15:23;;;;;;;0.90;0.90;;;;;;;4.25;91.86;98596.63;5031855;28;20053;-76
2023/12/20 05:17:48;;;;;;;1.00;1.00;;;;;;;4.31;92.27;98602.22;5030511;28;20038;-76
2023/12/20 05:20:17;;;;;;;0.90;0.90;;;;;;;4.30;92.11;98613.59;5032305;28;20044;-76
2023/12/20 05:22:42;;;;;;;0.90;0.90;;;;;;;4.32;91.84;98624.28;5036745;28;20044;-76
2023/12/20 05:25:08;;;;;;;0.90;0.90;;;;;;;4.22;92.62;98616.69;5035305;28;20044;-76
2023/12/20 05:27:33;;;;;;;0.95;0.95;;;;;;;4.18;92.45;98615.63;5033014;28;20052;-76
2023/12/20 05:29:58;;;;;;;0.90;0.90;;;;;;;4.35;92.29;98617.38;5032275;28;20275;-76
2023/12/20 05:32:24;;;;;;;1.00;1.00;;;;;;;4.26;92.61;98616.00;5032952;28;20106;-76
2023/12/20 05:34:49;;;;;;;0.90;0.90;;;;;;;4.30;92.45;98620.63;5031064;28;20045;-76
2023/12/20 05:37:15;;;;;;;0.88;0.88;;;;;;;4.33;92.51;98624.34;5029431;28;20037;-76
2023/12/20 05:39:40;;;;;;;0.90;0.90;;;;;;;4.39;91.99;98626.38;5033290;28;20045;-75
2023/12/20 05:42:05;;;;;;;1.00;1.00;;;;;;;4.41;92.46;98622.09;5032583;28;20076;-76
2023/12/20 05:44:31;;;;;;;0.90;0.90;;;;;;;4.37;92.60;98630.69;5033945;28;20092;-76
2023/12/20 05:46:56;;;;;;;0.80;0.80;;;;;;;4.43;92.46;98631.00;5033227;28;20079;-76
2023/12/20 05:49:22;;;;;;;0.90;0.90;;;;;;;4.53;92.85;98632.38;5034835;28;20049;-76
2023/12/20 05:51:47;;;;;;;0.90;0.90;;;;;;;4.53;92.40;98640.28;5030526;28;20106;-76
2023/12/20 05:54:13;;;;;;;0.90;0.90;;;;;;;4.51;93.08;98652.53;5032651;28;20538;-75
2023/12/20 05:56:38;;;;;;;1.00;1.00;;;;;;;4.46;92.79;98656.69;5033442;28;20033;-76
2023/12/20 05:59:04;;;;;;;0.90;0.90;;;;;;;4.44;93.26;98653.94;5030098;28;20037;-77
2023/12/20 06:01:29;;;;;;;0.90;0.90;;;;;;;4.43;93.18;98662.69;5030270;28;20045;-76
2023/12/20 06:03:54;;;;;;;0.90;0.90;;;;;;;4.46;93.27;98669.88;5029899;28;20076;-76
2023/12/20 06:06:22;;;;;;;0.90;0.90;;;;;;;4.50;93.48;98674.47;5030301;28;20037;-76
2023/12/20 06:08:50;;;;;;;1.00;1.00;;;;;;;4.60;93.16;98668.88;5032441;28;20037;-77
2023/12/20 06:11:27;;;;;;;1.00;1.00;;;;;;;4.47;93.69;98669.94;5032591;28;20041;-77
2023/12/20 06:13:53;;;;;;;0.90;0.90;;;;;;;4.47;93.87;98672.59;5029889;28;20037;-77
2023/12/20 06:16:19;;;;;;;0.90;0.90;;;;;;;4.51;93.87;98679.84;5030272;28;20041;-77
2023/12/20 06:18:44;;;;;;;0.90;0.90;;;;;;;4.59;93.66;98669.66;5031849;28;20041;-77
2023/12/20 06:21:12;;;;;;;0.90;0.90;;;;;;;4.57;93.55;98666.06;5034232;28;20095;-77
2023/12/20 06:23:38;;;;;;;1.00;1.00;;;;;;;4.53;93.89;98674.66;5030688;28;20064;-77
2023/12/20 06:26:04;;;;;;;0.98;0.98;;;;;;;4.54;94.30;98677.34;5030022;28;20029;-77
2023/12/20 06:28:29;;;;;;;0.90;0.90;;;;;;;4.55;93.93;98672.97;5033789;28;20392;-77
2023/12/20 06:31:00;;;;;;;0.98;0.98;;;;;;;4.52;94.26;98668.47;5030954;28;20122;-77
2023/12/20 06:33:26;;;;;;;1.00;1.00;;;;;;;4.60;93.92;98674.16;5037968;28;20034;-77
2023/12/20 06:35:52;;;;;;;0.90;0.90;;;;;;;4.59;93.95;98677.59;5030043;28;20044;-76
2023/12/20 06:38:18;;;;;;;0.90;0.90;;;;;;;4.59;94.23;98667.03;5032133;28;20585;-77
2023/12/20 06:40:44;;;;;;;1.00;1.00;;;;;;;4.64;94.07;98669.06;5035359;28;20234;-76
2023/12/20 06:43:10;;;;;;;0.90;0.90;;;;;;;4.60;94.04;98676.78;5030064;28;21060;-76
2023/12/20 06:45:35;;;;;;;0.90;0.90;;;;;;;4.60;94.38;98679.44;5032178;28;20041;-76
2023/12/20 06:48:00;;;;;;;1.00;1.00;;;;;;;4.60;94.25;98675.06;5029630;28;20083;-76
2023/12/20 06:50:26;;;;;;;0.93;0.93;;;;;;;4.61;94.40;98676.84;5030492;28;20041;-76
2023/12/20 06:52:54;;;;;;;0.90;0.90;;;;;;;4.72;93.71;98674.75;5030313;28;20034;-76
2023/12/20 06:55:20;;;;;;;0.90;0.90;;;;;;;4.71;93.81;98683.53;5032969;28;20128;-77
2023/12/20 06:57:45;;;;;;;0.90;0.90;;;;;;;4.70;93.54;98687.00;5029403;28;20061;-77
2023/12/20 07:00:11;;;;;;;0.90;0.90;;;;;;;4.66;93.64;98690.31;5029816;28;20828;-77
2023/12/20 07:02:37;;;;;;;1.02;1.02;;;;;;;4.73;93.87;98695.06;5029177;28;20080;-77
2023/12/20 07:05:03;;;;;;;0.90;0.90;;;;;;;4.75;93.81;98693.44;5029210;28;20116;-79
2023/12/20 07:07:28;;;;;;;0.90;0.90;;;;;;;4.74;93.63;98702.16;5030371;28;20124;-78
2023/12/20 07:10:02;;;;;;;0.90;0.90;;;;;;;4.79;93.66;98703.31;5030965;28;20033;-78
2023/12/20 07:12:33;;;;;;;0.90;0.90;;;;;;;4.74;93.64;98699.50;5033035;28;20094;-78
2023/12/20 07:15:02;;;;;;;0.90;0.90;;;;;;;4.77;93.58;98704.06;5029769;28;20119;-78
2023/12/20 07:17:27;;;;;;;1.00;1.00;;;;;;;4.71;93.87;98704.66;5028017;28;20059;-78
2023/12/20 07:19:53;;;;;;;1.00;1.00;;;;;;;4.76;93.40;98702.25;5030088;28;20399;-78
2023/12/20 07:22:31;;;;;;;1.00;1.00;;;;;;;4.74;93.21;98710.09;5030255;28;20819;-77
2023/12/20 07:25:03;;;;;;;1.00;1.00;;;;;;;4.74;93.30;98720.66;5031949;28;20047;-77
2023/12/20 07:27:36;;;;;;;1.00;1.00;;;;;;;4.72;93.43;98727.59;5031044;28;20033;-77
2023/12/20 07:30:10;;;;;;;0.90;0.90;;;;;;;4.74;93.20;98725.03;5031153;28;20045;-78
2023/12/20 07:32:36;;;;;;;1.00;1.00;;;;;;;4.76;93.25;98736.63;5027341;28;20038;-77
2023/12/20 07:35:02;;;;;;;0.90;0.90;;;;;;;4.75;93.46;98737.44;5032266;28;20042;-78
2023/12/20 07:37:28;;;;;;;1.00;1.00;;;;;;;4.79;93.42;98737.69;5029824;28;20037;-78
2023/12/20 07:39:53;;;;;;;0.90;0.90;;;;;;;4.73;93.40;98747.91;5032185;28;20045;-77
2023/12/20 07:42:19;;;;;;;0.90;0.90;;;;;;;4.76;92.83;98752.47;5030159;28;20037;-77
2023/12/20 07:44:45;;;;;;;1.00;1.00;;;;;;;4.71;93.05;98746.94;5030861;28;20037;-78
2023/12/20 07:47:11;;;;;;;1.00;1.00;;;;;;;4.78;92.99;98748.16;5031619;28;20047;-78
2023/12/20 07:49:37;;;;;;;1.08;1.08;;;;;;;4.73;92.98;98753.19;5028011;28;20048;-78
2023/12/20 07:52:03;;;;;;;0.90;0.90;;;;;;;4.77;93.12;98751.63;5027960;28;20511;-77
2023/12/20 07:54:28;;;;;;;1.00;1.00;;;;;;;4.74;92.77;98747.09;5032967;28;20041;-78
2023/12/20 07:56:53;;;;;;;0.90;0.90;;;;;;;4.80;92.27;98757.09;5032701;28;20049;-78
2023/12/20 07:59:19;;;;;;;1.00;1.00;;;;;;;4.80;92.04;98759.75;5031163;28;20045;-78
2023/12/20 08:01:45;;;;;;;1.00;1.00;;;;;;;4.83;91.73;98771.34;5031770;28;20022;-75
2023/12/20 08:04:10;;;;;;;0.90;0.90;;;;;;;4.84;91.92;98759.97;5032896;28;20064;-78
2023/12/20 08:06:36;;;;;;;0.90;0.90;;;;;;;4.82;91.77;98758.97;5031452;28;20037;-78
2023/12/20 08:09:04;;;;;;;1.00;1.00;;;;;;;4.84;91.90;98762.63;5034944;28;20044;-78
2023/12/20 08:11:29;;;;;;;0.93;0.93;;;;;;;4.78;92.40;98757.00;5032941;28;20059;-76
2023/12/20 08:13:55;;;;;;;0.82;0.82;;;;;;;4.77;92.43;98763.13;5032077;28;20414;-76
2023/12/20 08:16:20;;;;;;;1.00;1.00;;;;;;;4.77;91.35;98752.53;5028903;28;20098;-78
2023/12/20 08:18:47;;;;;;;1.00;1.00;;;;;;;4.73;90.94;98766.41;5031019;28;20104;-76
2023/12/20 08:21:12;;;;;;;1.05;1.05;;;;;;;4.77;90.95;98775.44;5029747;28;20167;-76
2023/12/20 08:23:38;;;;;;;0.82;0.82;;;;;;;4.82;90.43;98779.22;5032573;28;20044;-76
2023/12/20 08:26:05;;;;;;;0.90;0.90;;;;;;;4.89;89.88;98773.44;5035561;28;20067;-77
2023/12/20 08:28:31;;;;;;;;;;;;;;;4.80;90.38;98776.50;5033016;28;20582;-76
2023/12/20 08:30:56;;;;;;;0.93;0.93;;;;;;;4.76;89.56;98787.72;5030965;28;19979;-77
2023/12/20 08:33:22;;;;;;;1.00;1.00;;;;;;;4.77;89.74;98794.81;5035698;28;20087;-78
2023/12/20 08:35:47;;;;;;;0.95;0.95;;;;;;;4.83;89.60;98797.78;5032867;28;20084;-78
2023/12/20 08:38:13;;;;;;;0.90;0.90;;;;;;;4.85;89.17;98801.44;5026928;28;20068;-77
2023/12/20 08:40:38;;;;;;;0.98;0.98;;;;;;;4.94;89.14;98802.75;5036606;28;20033;-77
2023/12/20 08:43:06;;;;;;;0.93;0.93;;;;;;;4.90;88.99;98804.31;5035944;28;20573;-77
2023/12/20 08:45:35;;;;;;;0.90;0.90;;;;;;;4.95;88.89;98804.56;5031945;28;20128;-77
2023/12/20 08:48:05;;;;;;;1.00;1.00;;;;;;;4.89;88.47;98787.56;5029066;28;20041;-77
2023/12/20 08:50:34;;;;;;;1.00;1.00;;;;;;;4.86;87.78;98800.59;5032835;28;20907;-77
2023/12/20 08:52:59;;;;;;;0.90;0.90;;;;;;;4.86;88.25;98799.69;5030165;28;20698;-77
2023/12/20 08:55:30;;;;;;;0.90;0.90;;;;;;;4.78;87.76;98786.06;5035308;28;20250;-78
2023/12/20 08:57:56;;;;;;;1.00;1.00;;;;;;;4.74;88.10;98786.72;5034643;28;20033;-78
2023/12/20 09:00:25;;;;;;;1.00;1.00;;;;;;;4.84;87.40;98785.50;5032678;28;20141;-77
2023/12/20 09:02:51;;;;;;;1.10;1.10;;;;;;;4.70;87.68;98787.41;5034098;28;20114;-78
2023/12/20 09:05:16;;;;;;;1.00;1.00;;;;;;;4.60;87.71;98778.09;5033071;28;20422;-77
2023/12/20 09:07:42;;;;;;;1.00;1.00;;;;;;;4.76;87.01;98792.13;5031340;28;20033;-77
2023/12/20 09:10:07;;;;;;;1.00;1.00;;;;;;;4.76;87.28;98786.84;5037515;28;20033;-77
2023/12/20 09:12:33;;;;;;;1.00;1.00;;;;;;;4.76;87.51;98793.03;5034574;28;20037;-77
2023/12/20 09:14:58;;;;;;;0.90;0.90;;;;;;;4.82;86.51;98788.03;5051012;28;20025;-77
2023/12/20 09:17:23;;;;;;;1.02;1.02;;;;;;;5.61;84.39;98787.66;5039167;28;20048;-77
2023/12/20 09:19:49;;;;;;;1.05;1.05;;;;;;;6.72;80.21;98786.75;5033281;28;20041;-77
2023/12/20 09:22:15;;;;;;;1.00;1.00;;;;;;;7.09;77.13;98783.06;5033994;28;20069;-77
2023/12/20 09:24:40;;;;;;;1.00;1.00;;;;;;;7.34;76.08;98782.38;5037437;28;20052;-77
2023/12/20 09:27:06;;;;;;;0.98;0.98;;;;;;;7.78;73.83;98786.00;5032881;28;20036;-77
2023/12/20 09:29:31;;;;;;;0.90;0.90;;;;;;;8.03;73.15;98785.22;5033631;28;20036;-77
2023/12/20 09:31:57;;;;;;;0.85;0.85;;;;;;;7.93;72.76;98783.94;5033222;28;20033;-77
2023/12/20 09:34:23;;;;;;;0.90;0.90;;;;;;;7.98;71.24;98777.06;5032144;28;20033;-77
2023/12/20 09:36:48;;;;;;;0.90;0.90;;;;;;;8.12;70.69;98774.97;5034251;28;20040;-77
2023/12/20 09:39:14;;;;;;;0.90;0.90;;;;;;;7.65;71.92;98782.81;5033729;28;20040;-78
2023/12/20 09:41:47;;;;;;;0.90;0.90;;;;;;;7.95;70.69;98780.53;5040146;28;20502;-77
2023/12/20 09:44:17;;;;;;;0.90;0.90;;;;;;;8.15;69.73;98780.41;5049562;28;20183;-76
2023/12/20 09:46:50;;;;;;;0.70;0.70;;;;;;;8.18;68.47;98781.41;5030299;28;20386;-77
2023/12/20 09:49:18;;;;;;;0.80;0.80;;;;;;;8.50;67.29;98780.88;5031818;28;20119;-77
2023/12/20 09:51:46;;;;;;;0.90;0.90;;;;;;;8.63;67.92;98789.38;5030843;28;20025;-78
2023/12/20 09:54:16;;;;;;;0.80;0.80;;;;;;;8.73;66.41;98787.97;5041910;28;20063;-77
2023/12/20 09:56:42;;;;;;;1.00;1.00;;;;;;;8.70;66.58;98790.50;5032380;28;20436;-77
2023/12/20 09:59:07;;;;;;;0.90;0.90;;;;;;;9.08;64.90;98791.00;5030135;28;20041;-77
2023/12/20 10:01:34;;;;;;;0.80;0.80;;;;;;;8.71;64.82;98790.56;5031828;28;20039;-77
2023/12/20 10:04:00;;;;;;;1.00;1.00;;;;;;;8.61;64.64;98771.56;5047112;28;20550;-78
2023/12/20 10:06:26;;;;;;;0.80;0.80;;;;;;;8.39;64.67;98792.03;5035820;28;20073;-78
2023/12/20 10:08:52;;;;;;;1.00;1.00;;;;;;;8.93;64.43;98791.38;5032118;28;20076;-77
2023/12/20 10:11:19;;;;;;;0.70;0.70;;;;;;;9.43;63.06;98797.56;5035144;28;20056;-77
2023/12/20 10:13:48;;;;;;;0.90;0.90;;;;;;;8.78;63.20;98799.69;5034451;28;20966;-77
2023/12/20 10:16:13;;;;;;;1.00;1.00;;;;;;;9.04;61.82;98779.34;5033646;28;20067;-77
2023/12/20 10:18:41;;;;;;;0.80;0.80;;;;;;;8.63;63.01;98796.47;5033762;28;20043;-77
2023/12/20 10:21:09;;;;;;;0.93;0.93;;;;;;;9.27;61.57;98781.94;5033018;28;20040;-77
2023/12/20 10:23:35;;;;;;;0.95;0.95;;;;;;;9.68;61.07;98786.91;5032444;28;20128;-77
2023/12/20 10:26:01;;;;;;;0.70;0.70;;;;;;;8.60;62.46;98770.66;5031643;28;20700;-77
2023/12/20 10:28:32;;;;;;;0.80;0.80;;;;;;;7.57;65.16;98778.03;5037220;28;20051;-77
2023/12/20 10:30:58;;;;;;;0.90;0.90;;;;;;;7.63;66.50;98775.66;5033624;28;20037;-78
2023/12/20 10:33:34;;;;;;;0.90;0.90;;;;;;;7.31;66.90;98771.63;5032628;28;20047;-77
2023/12/20 10:35:59;;;;;;;0.98;0.98;;;;;;;7.55;66.49;98764.69;5039659;28;20148;-77
2023/12/20 10:38:25;;;;;;;0.90;0.90;;;;;;;7.96;64.65;98768.13;5031860;28;20460;-77
2023/12/20 10:40:56;;;;;;;0.80;0.80;;;;;;;8.06;64.28;98767.66;5029398;28;20041;-77
2023/12/20 10:43:22;;;;;;;0.90;0.90;;;;;;;7.49;66.25;98764.44;5036602;28;20041;-77
2023/12/20 10:45:48;;;;;;;0.90;0.90;;;;;;;6.93;67.42;98773.53;5032145;28;20537;-77
2023/12/20 10:48:16;;;;;;;0.90;0.90;;;;;;;6.49;69.31;98763.59;5033224;28;20037;-77
2023/12/20 10:50:41;;;;;;;1.10;1.10;;;;;;;8.08;64.12;98763.28;5045182;28;20041;-77
2023/12/20 10:53:07;;;;;;;1.00;1.00;;;;;;;8.84;61.04;98749.38;5029278;28;20053;-77
2023/12/20 10:55:34;;;;;;;0.90;0.90;;;;;;;8.42;62.11;98759.31;5047294;28;20037;-77
2023/12/20 10:58:07;;;;;;;1.10;1.10;;;;;;;8.09;61.26;98765.09;5033245;28;20041;-77
2023/12/20 11:00:38;;;;;;;0.90;0.90;;;;;;;9.56;57.74;98748.31;5032744;28;20800;-77
2023/12/20 11:03:06;;;;;;;0.90;0.90;;;;;;;9.76;56.57;98742.75;5029120;28;20474;-77
2023/12/20 11:06:02;;;;;;;0.95;0.95;;;;;;;11.09;54.25;98737.88;5029894;28;20044;-77
2023/12/20 11:08:51;;;;;;;1.00;1.00;;;;;;;10.45;55.42;98744.06;5031451;28;20045;-77
2023/12/20 11:11:20;;;;;;;0.98;0.98;;;;;;;10.31;54.65;98730.31;5033831;28;20036;-77
2023/12/20 11:14:27;;;;;;;0.90;0.90;;;;;;;9.40;55.57;98742.47;5037318;28;20036;-77
2023/12/20 11:17:09;;;;;;;0.90;0.90;;;;;;;9.00;57.37;98735.75;4984311;28;20403;-77
2023/12/20 11:20:03;;;;;;;0.80;0.80;;;;;;;8.33;59.15;98727.94;5034558;28;20048;-77
2023/12/20 11:22:33;;;;;;;0.80;0.80;;;;;;;7.78;60.94;98744.41;5029931;28;20057;-76
2023/12/20 11:25:08;;;;;;;0.95;0.95;;;;;;;7.93;60.66;98736.13;5034977;28;20068;-77
2023/12/20 11:28:02;;;;;;;0.90;0.90;;;;;;;7.91;60.76;98732.53;5031684;28;20468;-77
2023/12/20 11:31:00;;;;;;;1.05;1.05;;;;;;;9.21;56.19;98726.72;5029776;28;20033;-78
2023/12/20 11:33:30;;;;;;;1.00;1.00;;;;;;;10.30;52.80;98739.16;5031437;28;20061;-78
2023/12/20 11:35:56;;;;;;;1.10;1.10;;;;;;;10.74;50.86;98743.13;5030509;28;20041;-78
2023/12/20 11:38:25;;;;;;;0.90;0.90;;;;;;;9.04;55.60;98739.44;5033118;28;20051;-77
2023/12/20 11:40:57;;;;;;;0.80;0.80;;;;;;;7.88;59.34;98751.88;5035054;28;20286;-78